createdAt,value
2022-10-17T00:00:34.675Z,4.43
2022-10-17T00:03:01.896Z,4.70
2022-10-17T00:05:28.847Z,4.40
2022-10-17T00:07:55.523Z,4.57
2022-10-17T00:10:22.690Z,4.53
2022-10-17T00:12:51.465Z,5.65
2022-10-17T00:15:20.339Z,6.10
2022-10-17T00:17:47.267Z,5.68
2022-10-17T00:20:14.350Z,5.25
2022-10-17T00:22:41.037Z,4.75
2022-10-17T00:25:08.066Z,5.10
2022-10-17T00:27:36.536Z,5.18
2022-10-17T00:30:05.206Z,4.95
2022-10-17T00:32:32.071Z,4.25
2022-10-17T00:34:59.010Z,3.53
2022-10-17T00:37:25.663Z,4.18
2022-10-17T00:39:52.365Z,4.47
2022-10-17T00:42:18.931Z,3.92
2022-10-17T00:44:47.632Z,3.78
2022-10-17T00:47:18.779Z,3.80
2022-10-17T00:49:45.939Z,3.78
2022-10-17T00:52:17.979Z,3.60
2022-10-17T00:54:49.388Z,2.90
2022-10-17T00:57:16.886Z,3.25
2022-10-17T00:59:47.299Z,3.35
2022-10-17T01:02:17.335Z,3.25
2022-10-17T01:04:47.490Z,3.58
2022-10-17T01:07:14.203Z,3.08
2022-10-17T01:09:42.964Z,3.17
2022-10-17T01:12:18.499Z,3.33
2022-10-17T01:15:03.255Z,3.35
2022-10-17T01:17:48.504Z,4.55
2022-10-17T01:20:15.053Z,5.07
2022-10-17T01:22:49.698Z,5.60
2022-10-17T01:25:56.075Z,5.65
2022-10-17T01:28:38.068Z,6.32
2022-10-17T01:31:13.592Z,6.65
2022-10-17T01:33:54.611Z,4.65
2022-10-17T01:36:44.091Z,4.70
2022-10-17T01:39:13.896Z,4.68
2022-10-17T01:41:49.344Z,5.80
2022-10-17T01:44:40.920Z,4.55
2022-10-17T01:47:13.615Z,3.90
2022-10-17T01:49:44.079Z,4.47
2022-10-17T01:52:15.491Z,3.83
2022-10-17T01:54:50.207Z,3.13
2022-10-17T01:57:31.330Z,3.28
2022-10-17T01:59:58.335Z,2.95
2022-10-17T02:02:26.839Z,3.40
2022-10-17T02:04:55.782Z,2.97
2022-10-17T02:07:22.440Z,2.85
2022-10-17T02:09:49.083Z,2.65
2022-10-17T02:12:15.612Z,3.00
2022-10-17T02:14:42.131Z,2.85
2022-10-17T02:17:15.163Z,2.33
2022-10-17T02:20:09.653Z,3.25
2022-10-17T02:22:52.448Z,9.65
2022-10-17T02:25:42.177Z,34.67
2022-10-17T02:28:14.864Z,32.95
2022-10-17T02:30:47.171Z,8.85
2022-10-17T02:33:26.147Z,7.00
2022-10-17T02:35:57.244Z,5.22
2022-10-17T02:38:28.089Z,20.45
2022-10-17T02:40:55.905Z,20.08
2022-10-17T02:43:23.779Z,10.98
2022-10-17T02:45:51.724Z,6.22
2022-10-17T02:48:31.186Z,5.10
2022-10-17T02:51:15.699Z,6.68
2022-10-17T02:53:42.269Z,24.42
2022-10-17T02:56:16.638Z,20.90
2022-10-17T02:58:48.888Z,17.55
2022-10-17T03:01:16.710Z,15.35
2022-10-17T03:03:43.489Z,13.77
2022-10-17T03:06:10.310Z,10.98
2022-10-17T03:11:08.497Z,8.27
2022-10-17T03:13:39.002Z,7.80
2022-10-17T03:16:06.655Z,11.45
2022-10-17T03:18:33.319Z,8.85
2022-10-17T03:20:59.941Z,4.53
2022-10-17T03:23:26.615Z,15.80
2022-10-17T03:25:53.468Z,5.63
2022-10-17T03:28:20.131Z,6.50
2022-10-17T03:30:46.653Z,5.78
2022-10-17T03:33:13.257Z,5.82
2022-10-17T03:35:40.635Z,5.85
2022-10-17T03:38:07.302Z,7.20
2022-10-17T03:40:33.916Z,7.80
2022-10-17T03:43:00.454Z,9.43
2022-10-17T03:45:27.061Z,9.40
2022-10-17T03:47:53.655Z,9.77
2022-10-17T03:50:20.260Z,10.30
2022-10-17T03:52:48.564Z,10.18
2022-10-17T03:55:15.921Z,9.93
2022-10-17T03:57:45.373Z,7.82
2022-10-17T04:00:13.102Z,5.97
2022-10-17T04:02:39.739Z,7.72
2022-10-17T04:05:07.155Z,7.05
2022-10-17T04:07:33.735Z,7.45
2022-10-17T04:10:00.327Z,8.23
2022-10-17T04:12:27.068Z,8.73
2022-10-17T04:14:53.958Z,7.68
2022-10-17T04:17:20.580Z,7.63
2022-10-17T04:19:49.079Z,7.75
2022-10-17T04:22:15.803Z,7.53
2022-10-17T04:24:42.400Z,8.68
2022-10-17T04:27:09.025Z,12.82
2022-10-17T04:29:35.621Z,12.02
2022-10-17T04:32:02.441Z,10.60
2022-10-17T04:34:29.169Z,10.20
2022-10-17T04:36:55.751Z,10.68
2022-10-17T04:39:22.361Z,11.60
2022-10-17T04:41:49.013Z,10.35
2022-10-17T04:44:15.638Z,9.43
2022-10-17T04:46:42.210Z,9.27
2022-10-17T04:49:09.064Z,11.48
2022-10-17T04:51:35.721Z,11.88
2022-10-17T04:54:02.321Z,13.40
2022-10-17T04:56:28.933Z,13.20
2022-10-17T04:58:55.703Z,14.43
2022-10-17T05:01:23.661Z,12.68
2022-10-17T05:03:50.396Z,12.48
2022-10-17T05:06:21.137Z,41.50
2022-10-17T05:08:48.393Z,13.48
2022-10-17T05:11:29.135Z,15.40
2022-10-17T05:13:57.706Z,13.00
2022-10-17T05:16:25.807Z,21.95
2022-10-17T05:18:55.752Z,17.30
2022-10-17T05:21:24.471Z,16.83
2022-10-17T05:23:51.547Z,18.70
2022-10-17T05:26:18.505Z,16.90
2022-10-17T05:28:45.212Z,12.40
2022-10-17T05:31:12.605Z,13.77
2022-10-17T05:33:39.534Z,10.25
2022-10-17T05:36:07.441Z,9.57
2022-10-17T05:38:34.377Z,10.18
2022-10-17T05:41:02.720Z,9.48
2022-10-17T05:43:30.056Z,11.68
2022-10-17T05:45:56.769Z,12.25
2022-10-17T05:48:23.972Z,12.60
2022-10-17T05:50:50.508Z,10.85
2022-10-17T05:53:17.477Z,9.98
2022-10-17T05:55:44.074Z,8.07
2022-10-17T05:58:17.697Z,8.38
2022-10-17T06:00:49.121Z,8.48
2022-10-17T06:03:15.700Z,7.60
2022-10-17T06:05:42.394Z,7.63
2022-10-17T06:08:09.026Z,8.07
2022-10-17T06:10:35.616Z,9.50
2022-10-17T06:13:02.177Z,9.60
2022-10-17T06:15:28.724Z,9.07
2022-10-17T06:17:55.261Z,8.48
2022-10-17T06:20:21.807Z,8.60
2022-10-17T06:22:48.385Z,8.63
2022-10-17T06:25:15.108Z,8.68
2022-10-17T06:27:41.707Z,9.20
2022-10-17T06:30:08.796Z,9.25
2022-10-17T06:32:35.363Z,7.72
2022-10-17T06:35:02.165Z,7.43
2022-10-17T06:37:35.595Z,5.57
2022-10-17T06:40:04.341Z,5.72
2022-10-17T06:42:30.921Z,4.80
2022-10-17T06:44:57.499Z,4.90
2022-10-17T06:47:24.240Z,5.07
2022-10-17T06:49:50.831Z,5.55
2022-10-17T06:52:17.495Z,5.47
2022-10-17T06:54:44.697Z,5.45
2022-10-17T06:57:11.319Z,5.45
2022-10-17T06:59:37.951Z,5.70
2022-10-17T07:02:05.657Z,5.30
2022-10-17T07:04:32.611Z,5.32
2022-10-17T07:09:27.762Z,4.65
2022-10-17T07:11:54.388Z,4.72
2022-10-17T07:14:21.171Z,4.80
2022-10-17T07:16:47.801Z,4.50
2022-10-17T07:19:14.475Z,4.10
2022-10-17T07:21:41.093Z,6.07
2022-10-17T07:24:07.711Z,4.28
2022-10-17T07:26:34.299Z,4.88
2022-10-17T07:29:01.891Z,4.30
2022-10-17T07:31:28.666Z,5.10
2022-10-17T07:33:55.266Z,5.03
2022-10-17T07:36:21.826Z,4.88
2022-10-17T07:38:48.375Z,4.40
2022-10-17T07:41:19.206Z,5.03
2022-10-17T07:43:48.294Z,20.58
2022-10-17T07:46:15.009Z,5.18
2022-10-17T07:48:41.640Z,5.03
2022-10-17T07:51:09.669Z,4.47
2022-10-17T07:53:38.149Z,4.82
2022-10-17T07:56:09.133Z,5.05
2022-10-17T07:58:37.091Z,4.88
2022-10-17T08:01:08.360Z,4.55
2022-10-17T08:03:37.424Z,4.13
2022-10-17T08:06:04.134Z,5.10
2022-10-17T08:08:30.798Z,3.70
2022-10-17T08:11:03.695Z,3.95
2022-10-17T08:13:30.501Z,4.45
2022-10-17T08:16:05.527Z,3.55
2022-10-17T08:18:32.110Z,4.20
2022-10-17T08:21:03.249Z,3.80
2022-10-17T08:23:29.792Z,3.60
2022-10-17T08:26:00.469Z,3.75
2022-10-17T08:28:27.050Z,3.67
2022-10-17T08:30:53.618Z,3.95
2022-10-17T08:33:20.213Z,4.95
2022-10-17T08:35:46.777Z,3.10
2022-10-17T08:38:13.622Z,3.72
2022-10-17T08:40:42.899Z,3.38
2022-10-17T08:43:35.185Z,3.33
2022-10-17T08:46:07.783Z,3.35
2022-10-17T08:48:46.814Z,3.88
2022-10-17T08:51:21.752Z,3.42
2022-10-17T08:54:15.479Z,3.55
2022-10-17T08:56:49.700Z,4.47
2022-10-17T08:59:28.553Z,5.85
2022-10-17T09:02:29.238Z,3.25
2022-10-17T09:05:01.913Z,4.47
2022-10-17T09:08:07.269Z,3.83
2022-10-17T09:11:17.330Z,3.17
2022-10-17T09:14:05.624Z,3.20
2022-10-17T09:16:59.614Z,3.70
2022-10-17T09:19:35.498Z,3.00
2022-10-17T09:22:09.533Z,4.13
2022-10-17T09:24:36.105Z,3.85
2022-10-17T09:27:03.472Z,3.30
2022-10-17T09:29:36.086Z,3.05
2022-10-17T09:34:45.945Z,3.22
2022-10-17T09:37:17.290Z,2.42
2022-10-17T09:39:44.812Z,2.60
2022-10-17T09:42:21.435Z,2.83
2022-10-17T09:44:58.813Z,2.85
2022-10-17T09:47:51.775Z,2.65
2022-10-17T09:50:31.032Z,2.50
2022-10-17T09:53:10.219Z,2.33
2022-10-17T09:55:43.447Z,2.45
2022-10-17T09:58:11.528Z,2.90
2022-10-17T10:00:39.493Z,2.55
2022-10-17T10:03:22.969Z,2.67
2022-10-17T10:06:07.971Z,2.10
2022-10-17T10:08:37.992Z,2.30
2022-10-17T10:11:13.439Z,2.00
2022-10-17T10:13:40.740Z,2.15
2022-10-17T10:16:24.302Z,2.30
2022-10-17T10:18:51.937Z,3.10
2022-10-17T10:21:21.474Z,2.20
2022-10-17T10:24:03.676Z,2.13
2022-10-17T10:26:50.651Z,2.08
2022-10-17T10:29:40.029Z,2.17
2022-10-17T10:35:23.088Z,2.42
2022-10-17T10:37:58.424Z,2.10
2022-10-17T10:40:39.113Z,1.92
2022-10-17T10:43:06.586Z,1.95
2022-10-17T10:45:47.532Z,2.45
2022-10-17T10:48:35.030Z,1.98
2022-10-17T10:51:19.151Z,2.30
2022-10-17T10:53:56.655Z,2.33
2022-10-17T10:56:30.239Z,1.85
2022-10-17T10:59:08.757Z,1.88
2022-10-17T11:01:50.564Z,2.13
2022-10-17T11:04:30.000Z,2.83
2022-10-17T11:07:13.425Z,3.08
2022-10-17T11:09:46.535Z,4.90
2022-10-17T11:12:27.805Z,3.03
2022-10-17T11:15:03.583Z,4.95
2022-10-17T11:17:39.392Z,2.30
2022-10-17T11:20:08.961Z,2.35
2022-10-17T11:23:00.411Z,4.35
2022-10-17T11:25:40.813Z,3.03
2022-10-17T11:28:14.997Z,2.78
2022-10-17T11:30:48.176Z,2.25
2022-10-17T11:33:20.257Z,2.35
2022-10-17T11:35:51.405Z,2.42
2022-10-17T11:38:39.928Z,2.50
2022-10-17T11:41:10.849Z,2.60
2022-10-17T11:44:20.448Z,3.50
2022-10-17T11:46:54.521Z,2.33
2022-10-17T11:52:55.358Z,2.20
2022-10-17T11:55:28.121Z,2.05
2022-10-17T11:58:03.840Z,2.90
2022-10-17T12:00:46.174Z,2.13
2022-10-17T12:03:28.169Z,2.38
2022-10-17T12:05:58.881Z,2.95
2022-10-17T12:08:53.291Z,2.58
2022-10-17T12:11:56.374Z,2.67
2022-10-17T12:14:39.587Z,2.85
2022-10-17T12:17:29.287Z,2.92
2022-10-17T12:20:25.552Z,3.17
2022-10-17T12:23:03.271Z,3.05
2022-10-17T12:25:34.255Z,5.32
2022-10-17T12:28:15.963Z,3.13
2022-10-17T12:30:56.694Z,2.92
2022-10-17T12:33:34.106Z,2.90
2022-10-17T12:36:19.091Z,2.50
2022-10-17T12:38:50.485Z,6.18
2022-10-17T12:41:37.568Z,1.80
2022-10-17T12:44:12.920Z,2.13
2022-10-17T12:46:52.450Z,1.95
2022-10-17T12:49:43.637Z,2.33
2022-10-17T12:52:31.570Z,2.55
2022-10-17T12:55:15.545Z,5.03
2022-10-17T12:57:44.050Z,2.90
2022-10-17T13:00:22.890Z,3.22
2022-10-17T13:02:54.012Z,2.10
2022-10-17T13:05:38.575Z,2.92
2022-10-17T13:08:08.335Z,2.90
2022-10-17T13:10:41.951Z,4.25
2022-10-17T13:13:40.429Z,3.80
2022-10-17T13:16:07.569Z,3.28
2022-10-17T13:18:34.485Z,2.20
2022-10-17T13:21:03.934Z,2.78
2022-10-17T13:23:36.589Z,2.90
2022-10-17T13:26:18.184Z,2.47
2022-10-17T13:28:44.814Z,3.88
2022-10-17T13:31:32.316Z,3.10
2022-10-17T13:34:02.511Z,4.03
2022-10-17T13:36:31.539Z,4.25
2022-10-17T13:39:00.701Z,4.95
2022-10-17T13:41:35.740Z,4.15
2022-10-17T13:44:09.368Z,2.42
2022-10-17T13:46:38.449Z,4.28
2022-10-17T13:49:15.532Z,4.35
2022-10-17T13:51:48.127Z,3.45
2022-10-17T13:54:38.205Z,3.58
2022-10-17T13:57:06.015Z,3.55
2022-10-17T13:59:39.120Z,2.85
2022-10-17T14:02:12.651Z,2.90
2022-10-17T14:07:46.165Z,3.42
2022-10-17T14:10:24.932Z,3.20
2022-10-17T14:12:53.363Z,3.00
2022-10-17T14:15:22.755Z,2.67
2022-10-17T14:17:56.597Z,2.47
2022-10-17T14:23:36.637Z,2.42
2022-10-17T14:26:16.154Z,3.10
2022-10-17T14:28:45.770Z,2.63
2022-10-17T14:31:18.475Z,2.47
2022-10-17T14:33:50.623Z,3.20
2022-10-17T14:36:19.450Z,2.60
2022-10-17T14:38:52.199Z,2.40
2022-10-17T14:41:42.801Z,2.53
2022-10-17T14:44:23.772Z,3.05
2022-10-17T14:46:55.083Z,2.00
2022-10-17T14:49:33.974Z,2.28
2022-10-17T14:52:15.162Z,2.05
2022-10-17T14:54:48.939Z,2.10
2022-10-17T14:57:33.088Z,2.55
2022-10-17T15:00:00.059Z,2.33
2022-10-17T15:02:30.711Z,2.20
2022-10-17T15:04:57.914Z,2.40
2022-10-17T15:07:24.961Z,2.45
2022-10-17T15:09:53.843Z,2.35
2022-10-17T15:12:23.718Z,2.42
2022-10-17T15:14:51.935Z,2.63
2022-10-17T15:17:22.537Z,3.60
2022-10-17T15:19:50.958Z,2.42
2022-10-17T15:22:18.461Z,3.35
2022-10-17T15:24:48.267Z,2.78
2022-10-17T15:27:23.799Z,2.88
2022-10-17T15:29:51.764Z,3.47
2022-10-17T15:32:19.093Z,3.40
2022-10-17T15:34:45.831Z,3.90
2022-10-17T15:37:22.574Z,3.15
2022-10-17T15:39:54.700Z,3.10
2022-10-17T15:42:26.505Z,3.47
2022-10-17T15:44:53.852Z,9.52
2022-10-17T15:47:34.307Z,5.82
2022-10-17T15:50:02.271Z,5.07
2022-10-17T15:52:28.997Z,7.18
2022-10-17T15:54:57.423Z,5.22
2022-10-17T15:57:30.315Z,4.22
2022-10-17T15:59:59.853Z,6.25
2022-10-17T16:02:26.988Z,4.97
2022-10-17T16:04:53.996Z,5.55
2022-10-17T16:07:21.970Z,11.68
2022-10-17T16:09:48.784Z,11.98
2022-10-17T16:14:50.551Z,51.15
2022-10-17T16:17:17.831Z,29.27
2022-10-17T16:19:47.682Z,22.65
2022-10-17T16:22:36.849Z,16.13
2022-10-17T16:25:10.267Z,9.52
2022-10-17T16:27:37.919Z,11.48
2022-10-17T16:30:06.802Z,15.27
2022-10-17T16:32:33.951Z,10.85
2022-10-17T16:35:00.757Z,10.43
2022-10-17T16:37:27.635Z,9.70
2022-10-17T16:39:54.385Z,8.55
2022-10-17T16:42:21.810Z,7.40
2022-10-17T16:44:49.887Z,7.53
2022-10-17T16:47:17.790Z,8.60
2022-10-17T16:49:45.481Z,6.70
2022-10-17T16:52:13.699Z,6.28
2022-10-17T16:54:40.594Z,8.27
2022-10-17T16:57:07.397Z,8.70
2022-10-17T16:59:34.220Z,6.75
2022-10-17T17:02:05.064Z,7.45
2022-10-17T17:04:31.997Z,14.43
2022-10-17T17:06:59.012Z,13.38
2022-10-17T17:09:27.189Z,11.85
2022-10-17T17:11:53.929Z,9.20
2022-10-17T17:14:20.704Z,10.98
2022-10-17T17:16:47.523Z,12.48
2022-10-17T17:19:20.083Z,12.70
2022-10-17T17:21:51.196Z,10.85
2022-10-17T17:24:21.299Z,10.55
2022-10-17T17:26:55.474Z,10.15
2022-10-17T17:29:23.874Z,11.20
2022-10-17T17:31:55.456Z,14.38
2022-10-17T17:34:22.284Z,14.85
2022-10-17T17:36:53.716Z,8.32
2022-10-17T17:39:20.488Z,6.90
2022-10-17T17:41:47.318Z,7.90
2022-10-17T17:44:16.773Z,7.68
2022-10-17T17:46:44.534Z,6.53
2022-10-17T17:49:11.854Z,7.45
2022-10-17T17:51:41.721Z,9.57
2022-10-17T17:54:14.041Z,9.20
2022-10-17T17:56:40.904Z,8.10
2022-10-17T17:59:07.810Z,7.28
2022-10-17T18:01:41.744Z,7.93
2022-10-17T18:04:09.563Z,6.93
2022-10-17T18:06:42.467Z,6.18
2022-10-17T18:09:11.163Z,6.60
2022-10-17T18:11:38.832Z,5.32
2022-10-17T18:14:08.194Z,6.97
2022-10-17T18:16:36.800Z,5.13
2022-10-17T18:19:09.361Z,5.07
2022-10-17T18:21:39.020Z,6.17
2022-10-17T18:24:06.313Z,4.65
2022-10-17T18:26:33.998Z,6.50
2022-10-17T18:29:03.351Z,8.00
2022-10-17T18:31:38.321Z,8.30
2022-10-17T18:34:08.126Z,9.80
2022-10-17T18:36:39.151Z,8.10
2022-10-17T18:39:06.044Z,7.70
2022-10-17T18:41:33.901Z,7.70
2022-10-17T18:44:00.933Z,16.35
2022-10-17T18:46:36.031Z,17.38
2022-10-17T18:49:13.742Z,13.52
2022-10-17T18:51:46.099Z,18.98
2022-10-17T18:54:23.286Z,13.70
2022-10-17T18:56:53.104Z,14.52
2022-10-17T18:59:20.784Z,14.75
2022-10-17T19:01:50.911Z,13.43
2022-10-17T19:04:17.847Z,12.30
2022-10-17T19:06:46.805Z,14.43
2022-10-17T19:09:17.532Z,14.13
2022-10-17T19:11:48.260Z,15.10
2022-10-17T19:14:24.206Z,18.67
2022-10-17T19:16:53.717Z,22.88
2022-10-17T19:19:24.150Z,13.93
2022-10-17T19:21:54.519Z,13.43
2022-10-17T19:24:27.048Z,10.60
2022-10-17T19:26:56.994Z,9.60
2022-10-17T19:29:27.651Z,10.00
2022-10-17T19:34:29.268Z,10.82
2022-10-17T19:36:57.771Z,9.63
2022-10-17T19:39:27.716Z,8.68
2022-10-17T19:42:04.258Z,8.55
2022-10-17T19:44:33.645Z,8.40
2022-10-17T19:47:03.226Z,9.57
2022-10-17T19:49:30.041Z,9.20
2022-10-17T19:51:59.481Z,8.85
2022-10-17T19:54:26.359Z,7.80
2022-10-17T19:56:53.235Z,8.63
2022-10-17T19:59:20.219Z,8.35
2022-10-17T20:01:52.864Z,10.02
2022-10-17T20:04:19.757Z,8.55
2022-10-17T20:06:46.557Z,9.25
2022-10-17T20:09:16.904Z,8.95
2022-10-17T20:11:47.396Z,8.43
2022-10-17T20:14:14.228Z,8.05
2022-10-17T20:16:41.040Z,9.20
2022-10-17T20:19:10.622Z,8.50
2022-10-17T20:21:39.991Z,8.02
2022-10-17T20:24:09.090Z,6.85
2022-10-17T20:26:41.608Z,7.22
2022-10-17T20:29:13.563Z,9.10
2022-10-17T20:31:42.227Z,6.68
2022-10-17T20:34:12.891Z,6.43
2022-10-17T20:36:39.830Z,6.72
2022-10-17T20:39:07.546Z,7.32
2022-10-17T20:41:34.483Z,10.80
2022-10-17T20:44:01.292Z,11.02
2022-10-17T20:46:37.274Z,7.80
2022-10-17T20:49:08.741Z,6.90
2022-10-17T20:51:36.306Z,7.50
2022-10-17T20:54:06.345Z,41.10
2022-10-17T20:56:34.963Z,45.67
2022-10-17T20:59:04.743Z,15.80
2022-10-17T21:01:32.949Z,6.25
2022-10-17T21:04:15.827Z,6.03
2022-10-17T21:06:52.122Z,7.93
2022-10-17T21:09:19.877Z,9.38
2022-10-17T21:11:46.805Z,9.32
2022-10-17T21:14:13.642Z,9.77
2022-10-17T21:16:41.487Z,11.32
2022-10-17T21:19:09.873Z,11.95
2022-10-17T21:21:38.680Z,11.80
2022-10-17T21:24:09.247Z,9.85
2022-10-17T21:26:37.708Z,10.07
2022-10-17T21:29:06.039Z,8.25
2022-10-17T21:31:35.172Z,5.90
2022-10-17T21:34:12.233Z,6.40
2022-10-17T21:36:39.510Z,7.65
2022-10-17T21:41:33.743Z,7.10
2022-10-17T21:44:03.920Z,7.60
2022-10-17T21:46:33.084Z,7.80
2022-10-17T21:49:01.106Z,7.38
2022-10-17T21:51:28.337Z,8.00
2022-10-17T21:53:57.363Z,6.90
2022-10-17T21:56:29.152Z,8.20
2022-10-17T21:58:56.774Z,8.25
2022-10-17T22:01:30.779Z,7.15
2022-10-17T22:04:00.377Z,6.70
2022-10-17T22:06:45.029Z,6.10
2022-10-17T22:09:20.694Z,7.07
2022-10-17T22:11:49.177Z,7.72
2022-10-17T22:14:18.471Z,7.28
2022-10-17T22:16:46.645Z,6.47
2022-10-17T22:19:15.688Z,5.65
2022-10-17T22:21:42.372Z,5.05
2022-10-17T22:24:12.392Z,5.82
2022-10-17T22:26:39.120Z,6.00
2022-10-17T22:29:07.595Z,6.85
2022-10-17T22:31:34.443Z,6.43
2022-10-17T22:34:00.995Z,5.18
2022-10-17T22:36:27.746Z,5.05
2022-10-17T22:38:54.327Z,4.55
2022-10-17T22:41:20.897Z,4.55
2022-10-17T22:43:47.506Z,3.90
2022-10-17T22:46:16.688Z,4.28
2022-10-17T22:48:43.765Z,5.13
2022-10-17T22:51:11.078Z,4.75
2022-10-17T22:53:38.105Z,4.95
2022-10-17T22:56:09.344Z,5.93
2022-10-17T22:58:36.536Z,5.32
2022-10-17T23:01:04.602Z,6.00
2022-10-17T23:03:31.951Z,6.18
2022-10-17T23:05:58.922Z,5.47
2022-10-17T23:08:27.290Z,5.82
2022-10-17T23:10:54.140Z,5.60
2022-10-17T23:13:21.954Z,5.13
2022-10-17T23:15:52.955Z,7.47
2022-10-17T23:18:20.581Z,5.38
2022-10-17T23:20:47.944Z,5.70
2022-10-17T23:23:14.888Z,6.07
2022-10-17T23:25:41.814Z,5.72
2022-10-17T23:28:08.884Z,5.70
2022-10-17T23:30:36.835Z,5.13
2022-10-17T23:33:04.423Z,5.07
2022-10-17T23:35:31.918Z,4.55
2022-10-17T23:37:58.521Z,5.78
2022-10-17T23:40:25.195Z,5.10
2022-10-17T23:42:51.809Z,4.38
2022-10-17T23:45:18.548Z,5.00
2022-10-17T23:47:45.296Z,5.07
2022-10-17T23:50:12.678Z,4.75
2022-10-17T23:52:39.491Z,5.07
2022-10-17T23:55:06.814Z,4.85
2022-10-17T23:57:33.654Z,4.68
